Etusivu
METAR-TAF:

METAR-TAF

Lentoasemat :

Beatrice Municipal Airport

Beatrice, Nebraska, Yhdysvallat

Leveyspiiri: 40-18N, Pituuspiiri: 096-45W, korkeus merenpinnasta: 403 m

Tämänhetkinen sää

Tämä raportti tehtiin 30 minuuttia sitten, kello 09.15 UTC
Tuuli 11 kn pohjoisesta
Lämpötila -2°C
Kosteus 80%
Ilmanpaine 1024 hPa
Näkyvyys: 16.1 km
Hajanaisia pilviä 12000 ft:n korkeudessa

METAR: KBIE 180915Z AUTO 35011KT 10SM SCT120 M02/M05 A3024 RMK AO2 T10231055

Aika: 03:45 (09:45 UTC)


TAF: puuttuu

Säähavainnot ja -ennusteet yli 4000 lentoasemalta (METAR- ja TAF-raportit).

Käytössä olevat sääasemat on merkitty karttaan keltaisilla ja punaisilla pisteillä.

Aseta hiiri pisteen päälle nähdäksesi sääaseman nimen.

Klikkaa sitten nähdäksesi säähavainnot ja -ennusteet.

Kartan vaihtaminen: klikkaa mustalla rastilla varustettuja vihreitä pisteitä, niin voit zoomata sisään; viivalla varustettua vihreää pistettä, niin voit zoomata ulos tai vihreitä nuolia, niin pääset viereisille kartoille.


METAR-TAF: